createdAt,value
2018-03-21T00:00:07.112Z,2.83
2018-03-21T00:02:40.323Z,3.10
2018-03-21T00:05:13.428Z,2.90
2018-03-21T00:07:46.854Z,2.90
2018-03-21T00:10:20.460Z,3.23
2018-03-21T00:12:53.646Z,3.00
2018-03-21T00:15:26.783Z,2.77
2018-03-21T00:18:00.307Z,3.17
2018-03-21T00:20:33.417Z,2.63
2018-03-21T00:23:06.640Z,3.23
2018-03-21T00:25:39.678Z,2.90
2018-03-21T00:28:12.783Z,3.50
2018-03-21T00:30:46.165Z,3.50
2018-03-21T00:33:19.322Z,3.43
2018-03-21T00:35:52.380Z,3.27
2018-03-21T00:38:29.747Z,3.63
2018-03-21T00:41:03.697Z,3.50
2018-03-21T00:43:37.080Z,3.50
2018-03-21T00:46:10.891Z,3.47
2018-03-21T00:48:44.509Z,5.20
2018-03-21T00:51:17.971Z,4.67
2018-03-21T00:53:51.239Z,4.60
2018-03-21T00:56:24.457Z,4.80
2018-03-21T00:58:57.840Z,5.33
2018-03-21T01:01:31.111Z,4.30
2018-03-21T01:04:04.845Z,6.17
2018-03-21T01:06:38.956Z,4.73
2018-03-21T01:09:12.273Z,5.10
2018-03-21T01:11:45.321Z,4.70
2018-03-21T01:14:19.335Z,5.40
2018-03-21T01:16:53.591Z,5.50
2018-03-21T01:19:26.623Z,6.10
2018-03-21T01:22:00.288Z,5.33
2018-03-21T01:24:34.078Z,5.93
2018-03-21T01:27:07.212Z,6.37
2018-03-21T01:29:41.957Z,5.80
2018-03-21T01:32:15.259Z,6.33
2018-03-21T01:34:48.346Z,6.37
2018-03-21T01:37:22.422Z,5.97
2018-03-21T01:39:56.338Z,5.30
2018-03-21T01:42:29.513Z,5.73
2018-03-21T01:45:03.271Z,5.73
2018-03-21T01:47:36.555Z,5.33
2018-03-21T01:50:09.956Z,5.40
2018-03-21T01:52:43.373Z,5.63
2018-03-21T01:55:17.537Z,4.80
2018-03-21T01:57:50.700Z,4.67
2018-03-21T02:00:24.232Z,4.33
2018-03-21T02:02:57.612Z,5.23
2018-03-21T02:05:30.747Z,5.23
2018-03-21T02:08:04.273Z,5.53
2018-03-21T02:10:38.041Z,4.33
2018-03-21T02:13:11.160Z,4.20
2018-03-21T02:15:44.648Z,4.60
2018-03-21T02:18:18.029Z,4.40
2018-03-21T02:20:51.194Z,4.20
2018-03-21T02:23:24.497Z,3.60
2018-03-21T02:25:58.256Z,4.17
2018-03-21T02:28:31.294Z,3.77
2018-03-21T02:31:04.736Z,4.50
2018-03-21T02:33:38.095Z,4.40
2018-03-21T02:36:11.382Z,4.20
2018-03-21T02:38:47.257Z,3.73
2018-03-21T02:41:20.651Z,4.17
2018-03-21T02:43:53.744Z,4.43
2018-03-21T02:46:27.123Z,3.87
2018-03-21T02:49:00.505Z,4.07
2018-03-21T02:51:33.640Z,4.20
2018-03-21T02:54:06.780Z,5.00
2018-03-21T02:56:40.312Z,5.07
2018-03-21T02:59:13.374Z,4.50
2018-03-21T03:01:46.822Z,4.60
2018-03-21T03:04:20.135Z,4.50
2018-03-21T03:06:53.386Z,4.30
2018-03-21T03:09:26.894Z,4.00
2018-03-21T03:12:00.145Z,4.37
2018-03-21T03:14:33.250Z,4.80
2018-03-21T03:17:06.396Z,4.03
2018-03-21T03:19:39.515Z,3.70
2018-03-21T03:22:13.042Z,4.20
2018-03-21T03:24:46.763Z,4.20
2018-03-21T03:27:19.966Z,4.10
2018-03-21T03:29:53.092Z,3.80
2018-03-21T03:32:26.943Z,3.80
2018-03-21T03:34:59.985Z,4.17
2018-03-21T03:37:33.150Z,3.93
2018-03-21T03:40:07.085Z,4.40
2018-03-21T03:42:40.484Z,4.70
2018-03-21T03:45:13.618Z,3.97
2018-03-21T03:47:47.057Z,4.70
2018-03-21T03:50:20.080Z,4.67
2018-03-21T03:52:53.562Z,3.80
2018-03-21T03:55:27.197Z,4.03
2018-03-21T03:58:00.673Z,4.00
2018-03-21T04:00:34.057Z,3.80
2018-03-21T04:03:08.143Z,4.00
2018-03-21T04:05:41.700Z,3.95
2018-03-21T04:08:14.867Z,3.50
2018-03-21T04:10:48.582Z,4.10
2018-03-21T04:13:22.933Z,3.97
2018-03-21T04:15:56.112Z,3.10
2018-03-21T04:18:29.564Z,4.30
2018-03-21T04:21:03.699Z,3.43
2018-03-21T04:23:36.920Z,4.43
2018-03-21T04:26:10.124Z,3.57
2018-03-21T04:28:43.311Z,5.00
2018-03-21T04:31:16.472Z,4.07
2018-03-21T04:33:49.676Z,4.07
2018-03-21T04:36:22.845Z,3.92
2018-03-21T04:38:56.328Z,3.90
2018-03-21T04:41:29.939Z,3.90
2018-03-21T04:44:03.093Z,4.17
2018-03-21T04:46:38.883Z,4.03
2018-03-21T04:49:12.893Z,4.10
2018-03-21T04:51:46.112Z,3.90
2018-03-21T04:54:20.932Z,3.70
2018-03-21T04:56:54.963Z,4.53
2018-03-21T04:59:30.103Z,4.67
2018-03-21T05:02:03.327Z,4.40
2018-03-21T05:04:37.322Z,5.60
2018-03-21T05:07:11.313Z,5.75
2018-03-21T05:09:44.900Z,5.47
2018-03-21T05:12:18.674Z,5.10
2018-03-21T05:14:51.761Z,5.10
2018-03-21T05:17:25.927Z,5.53
2018-03-21T05:19:59.435Z,5.57
2018-03-21T05:22:32.830Z,5.53
2018-03-21T05:25:06.160Z,4.43
2018-03-21T05:27:43.112Z,4.07
2018-03-21T05:30:16.410Z,5.10
2018-03-21T05:32:49.708Z,4.73
2018-03-21T05:35:23.672Z,5.30
2018-03-21T05:37:56.959Z,5.07
2018-03-21T05:40:30.189Z,4.20
2018-03-21T05:43:04.331Z,4.40
2018-03-21T05:45:38.036Z,4.53
2018-03-21T05:48:11.542Z,4.20
2018-03-21T05:50:45.333Z,4.32
2018-03-21T05:53:18.550Z,4.50
2018-03-21T05:55:52.536Z,5.00
2018-03-21T05:58:26.608Z,4.40
2018-03-21T06:01:00.204Z,4.68
2018-03-21T06:03:34.369Z,4.60
2018-03-21T06:06:07.890Z,4.20
2018-03-21T06:08:41.320Z,3.77
2018-03-21T06:11:15.369Z,4.15
2018-03-21T06:13:49.012Z,4.40
2018-03-21T06:16:22.436Z,3.70
2018-03-21T06:18:55.832Z,4.07
2018-03-21T06:21:30.305Z,4.07
2018-03-21T06:24:04.662Z,4.60
2018-03-21T06:26:38.208Z,4.50
2018-03-21T06:29:11.540Z,5.63
2018-03-21T06:31:48.962Z,7.17
2018-03-21T06:34:26.215Z,6.93
2018-03-21T06:37:01.109Z,6.60
2018-03-21T06:39:34.312Z,6.20
2018-03-21T06:42:08.797Z,6.13
2018-03-21T06:44:42.303Z,7.10
2018-03-21T06:47:16.091Z,7.40
2018-03-21T06:49:50.218Z,7.27
2018-03-21T06:52:23.804Z,7.30
2018-03-21T06:54:57.609Z,7.03
2018-03-21T06:57:31.663Z,6.70
2018-03-21T07:00:05.224Z,7.20
2018-03-21T07:02:38.544Z,7.40
2018-03-21T07:05:12.450Z,7.60
2018-03-21T07:07:45.658Z,7.70
2018-03-21T07:10:18.932Z,7.30
2018-03-21T07:12:52.973Z,8.27
2018-03-21T07:17:34.752Z,7.53
2018-03-21T07:20:09.189Z,8.07
2018-03-21T07:22:42.534Z,7.80
2018-03-21T07:25:16.258Z,7.63
2018-03-21T07:27:50.479Z,8.57
2018-03-21T07:30:24.458Z,8.37
2018-03-21T07:32:57.984Z,8.90
2018-03-21T07:35:31.639Z,8.03
2018-03-21T07:38:05.486Z,8.70
2018-03-21T07:40:39.338Z,8.90
2018-03-21T07:43:12.650Z,8.37
2018-03-21T07:45:45.921Z,8.47
2018-03-21T07:48:19.510Z,8.23
2018-03-21T07:50:53.419Z,8.10
2018-03-21T07:53:26.815Z,8.57
2018-03-21T07:56:09.539Z,8.20
2018-03-21T07:58:43.654Z,8.30
2018-03-21T08:01:17.811Z,8.07
2018-03-21T08:03:52.300Z,8.27
2018-03-21T08:06:26.085Z,8.23
2018-03-21T08:09:00.048Z,8.13
2018-03-21T08:11:33.195Z,7.63
2018-03-21T08:14:06.755Z,8.53
2018-03-21T08:16:41.314Z,8.37
2018-03-21T08:19:14.446Z,8.33
2018-03-21T08:21:47.879Z,8.37
2018-03-21T08:24:21.911Z,8.40
2018-03-21T08:26:55.542Z,7.63
2018-03-21T08:29:29.060Z,7.83
2018-03-21T08:32:03.171Z,7.67
2018-03-21T08:34:36.342Z,7.57
2018-03-21T08:37:10.078Z,7.40
2018-03-21T08:39:43.825Z,7.53
2018-03-21T08:42:17.231Z,7.27
2018-03-21T08:44:51.593Z,7.23
2018-03-21T08:47:39.756Z,7.00
2018-03-21T08:50:25.795Z,6.70
2018-03-21T08:52:59.764Z,7.23
2018-03-21T08:55:38.977Z,7.03
2018-03-21T08:58:13.658Z,6.97
2018-03-21T09:00:47.864Z,6.77
2018-03-21T09:03:22.374Z,6.63
2018-03-21T09:05:56.651Z,6.53
2018-03-21T09:08:30.801Z,5.83
2018-03-21T09:11:04.470Z,6.40
2018-03-21T09:13:37.898Z,5.50
2018-03-21T09:16:11.937Z,4.13
2018-03-21T09:18:45.600Z,4.67
2018-03-21T09:21:19.939Z,4.57
2018-03-21T09:23:56.068Z,4.47
2018-03-21T09:26:32.643Z,4.30
2018-03-21T09:29:06.402Z,4.33
2018-03-21T09:31:39.802Z,5.10
2018-03-21T09:34:14.760Z,4.53
2018-03-21T09:36:48.268Z,2.70
2018-03-21T09:39:21.465Z,2.83
2018-03-21T09:41:55.645Z,2.67
2018-03-21T09:44:29.221Z,1.97
2018-03-21T09:47:02.640Z,2.30
2018-03-21T09:49:35.947Z,2.13
2018-03-21T09:52:10.390Z,2.23
2018-03-21T09:54:44.017Z,1.90
2018-03-21T09:57:18.215Z,1.80
2018-03-21T09:59:52.711Z,1.80
2018-03-21T10:02:26.035Z,2.00
2018-03-21T10:05:00.398Z,2.30
2018-03-21T10:07:34.817Z,2.33
2018-03-21T10:10:08.142Z,2.20
2018-03-21T10:12:42.072Z,2.10
2018-03-21T10:15:16.780Z,2.17
2018-03-21T10:17:50.417Z,1.93
2018-03-21T10:20:23.966Z,1.97
2018-03-21T10:22:57.583Z,2.07
2018-03-21T10:25:30.863Z,2.13
2018-03-21T10:28:04.002Z,2.20
2018-03-21T10:30:37.916Z,2.20
2018-03-21T10:33:11.189Z,1.80
2018-03-21T10:35:45.271Z,1.87
2018-03-21T10:38:20.006Z,2.50
2018-03-21T10:40:53.306Z,2.17
2018-03-21T10:43:27.454Z,1.83
2018-03-21T10:46:03.040Z,1.77
2018-03-21T10:48:38.367Z,1.93
2018-03-21T10:51:13.080Z,1.80
2018-03-21T10:53:46.353Z,1.60
2018-03-21T10:56:21.259Z,1.80
2018-03-21T10:58:54.486Z,1.60
2018-03-21T11:01:31.914Z,1.60
2018-03-21T11:04:05.770Z,2.10
2018-03-21T11:06:39.879Z,1.67
2018-03-21T11:09:13.549Z,1.70
2018-03-21T11:11:46.795Z,1.67
2018-03-21T11:14:21.914Z,2.03
2018-03-21T11:16:55.896Z,1.80
2018-03-21T11:19:29.590Z,1.83
2018-03-21T11:22:05.847Z,1.87
2018-03-21T11:24:40.738Z,2.00
2018-03-21T11:27:15.609Z,1.90
2018-03-21T11:30:00.423Z,1.90
2018-03-21T11:32:37.505Z,1.67
2018-03-21T11:35:11.537Z,1.67
2018-03-21T11:37:47.883Z,1.60
2018-03-21T11:40:25.879Z,1.60
2018-03-21T11:43:01.177Z,1.77
2018-03-21T11:45:37.154Z,1.87
2018-03-21T11:48:11.368Z,1.73
2018-03-21T11:50:45.135Z,1.63
2018-03-21T11:53:20.295Z,1.73
2018-03-21T11:55:53.584Z,1.50
2018-03-21T11:58:28.521Z,1.53
2018-03-21T12:01:02.570Z,1.40
2018-03-21T12:03:36.904Z,1.53
2018-03-21T12:06:14.060Z,1.57
2018-03-21T12:08:53.826Z,1.77
2018-03-21T12:11:32.442Z,1.07
2018-03-21T12:14:06.264Z,1.30
2018-03-21T12:16:40.108Z,1.40
2018-03-21T12:19:13.640Z,1.40
2018-03-21T12:21:47.178Z,1.10
2018-03-21T12:24:20.907Z,1.17
2018-03-21T12:26:54.974Z,2.00
2018-03-21T12:29:29.475Z,1.30
2018-03-21T12:32:02.889Z,1.27
2018-03-21T12:34:37.663Z,0.93
2018-03-21T12:37:11.931Z,1.20
2018-03-21T12:39:45.513Z,1.30
2018-03-21T12:42:19.417Z,1.30
2018-03-21T12:44:54.111Z,1.30
2018-03-21T12:47:27.768Z,1.30
2018-03-21T12:50:01.899Z,1.30
2018-03-21T12:52:35.516Z,1.13
2018-03-21T12:55:09.752Z,1.10
2018-03-21T12:57:45.225Z,1.13
2018-03-21T13:00:18.815Z,1.30
2018-03-21T13:02:56.543Z,1.47
2018-03-21T13:05:33.329Z,1.53
2018-03-21T13:08:07.118Z,1.30
2018-03-21T13:10:44.606Z,1.10
2018-03-21T13:13:20.072Z,1.10
2018-03-21T13:15:54.025Z,1.57
2018-03-21T13:18:27.373Z,1.00
2018-03-21T13:21:01.219Z,1.10
2018-03-21T13:23:38.067Z,1.40
2018-03-21T13:26:15.143Z,0.93
2018-03-21T13:28:51.374Z,1.27
2018-03-21T13:31:25.725Z,1.10
2018-03-21T13:34:02.253Z,1.03
2018-03-21T13:36:36.033Z,1.10
2018-03-21T13:39:09.527Z,0.90
2018-03-21T13:41:43.193Z,1.10
2018-03-21T13:44:18.599Z,1.20
2018-03-21T13:46:52.447Z,1.00
2018-03-21T13:49:26.706Z,1.13
2018-03-21T13:52:01.687Z,1.20
2018-03-21T13:54:38.133Z,1.13
2018-03-21T13:57:16.531Z,1.20
2018-03-21T13:59:51.134Z,0.90
2018-03-21T14:02:25.419Z,1.20
2018-03-21T14:04:59.559Z,1.40
2018-03-21T14:07:34.202Z,1.47
2018-03-21T14:10:07.776Z,1.30
2018-03-21T14:12:41.891Z,1.20
2018-03-21T14:15:15.423Z,1.10
2018-03-21T14:17:49.364Z,1.10
2018-03-21T14:20:23.584Z,0.80
2018-03-21T14:22:57.821Z,1.00
2018-03-21T14:25:31.286Z,1.20
2018-03-21T14:28:10.673Z,1.10
2018-03-21T14:30:45.087Z,1.10
2018-03-21T14:33:18.607Z,1.10
2018-03-21T14:35:52.830Z,1.03
2018-03-21T14:38:26.671Z,1.20
2018-03-21T14:41:01.327Z,1.20
2018-03-21T14:43:39.548Z,1.00
2018-03-21T14:46:18.360Z,1.33
2018-03-21T14:48:52.891Z,1.30
2018-03-21T14:51:27.101Z,1.23
2018-03-21T14:54:00.833Z,1.20
2018-03-21T14:57:38.734Z,1.40
2018-03-21T15:00:13.459Z,1.40
2018-03-21T15:02:47.149Z,1.63
2018-03-21T15:05:21.050Z,1.00
2018-03-21T15:07:54.461Z,1.07
2018-03-21T15:10:31.364Z,1.27
2018-03-21T15:13:05.514Z,1.93
2018-03-21T15:15:38.940Z,1.30
2018-03-21T15:18:13.757Z,0.80
2018-03-21T15:20:47.465Z,1.57
2018-03-21T15:23:22.604Z,1.30
2018-03-21T15:25:56.366Z,1.10
2018-03-21T15:28:30.131Z,1.50
2018-03-21T15:31:04.531Z,1.20
2018-03-21T15:33:39.265Z,1.00
2018-03-21T15:36:14.439Z,1.10
2018-03-21T15:38:48.110Z,1.30
2018-03-21T15:41:21.883Z,1.67
2018-03-21T15:43:55.993Z,2.77
2018-03-21T15:46:29.338Z,1.40
2018-03-21T15:49:02.898Z,0.93
2018-03-21T15:51:36.686Z,1.00
2018-03-21T15:54:30.670Z,0.90
2018-03-21T15:57:18.836Z,0.90
2018-03-21T15:59:52.846Z,0.90
2018-03-21T16:02:26.344Z,0.80
2018-03-21T16:05:00.358Z,0.80
2018-03-21T16:07:34.471Z,0.80
2018-03-21T16:10:08.384Z,1.00
2018-03-21T16:12:41.938Z,0.97
2018-03-21T16:15:16.003Z,1.00
2018-03-21T16:17:49.734Z,0.83
2018-03-21T16:20:24.698Z,1.13
2018-03-21T16:23:01.647Z,1.10
2018-03-21T16:25:36.220Z,1.00
2018-03-21T16:28:09.852Z,0.90
2018-03-21T16:33:39.100Z,0.90
2018-03-21T16:36:13.966Z,0.90
2018-03-21T16:38:48.593Z,6.90
2018-03-21T16:41:22.086Z,6.87
2018-03-21T16:43:56.096Z,4.60
2018-03-21T16:46:35.124Z,2.50
2018-03-21T16:49:10.304Z,1.90
2018-03-21T16:51:46.512Z,1.50
2018-03-21T16:54:21.048Z,2.33
2018-03-21T16:56:56.109Z,2.30
2018-03-21T16:59:29.770Z,1.50
2018-03-21T17:02:05.733Z,1.50
2018-03-21T17:04:41.808Z,1.30
2018-03-21T17:07:18.258Z,1.10
2018-03-21T17:09:56.202Z,1.10
2018-03-21T17:12:30.431Z,1.20
2018-03-21T17:15:08.263Z,1.30
2018-03-21T17:17:50.670Z,2.03
2018-03-21T17:20:27.085Z,2.10
2018-03-21T17:26:16.656Z,2.00
2018-03-21T17:28:50.598Z,2.20
2018-03-21T17:31:24.108Z,2.30
2018-03-21T17:33:58.475Z,3.70
2018-03-21T17:36:35.391Z,4.20
2018-03-21T17:39:10.235Z,3.00
2018-03-21T17:41:44.066Z,2.87
2018-03-21T17:44:17.459Z,3.57
2018-03-21T17:46:50.981Z,2.67
2018-03-21T17:49:24.300Z,1.93
2018-03-21T17:51:57.512Z,2.40
2018-03-21T17:54:32.229Z,3.50
2018-03-21T17:57:06.867Z,12.67
2018-03-21T17:59:44.453Z,11.50
2018-03-21T18:02:17.605Z,5.40
2018-03-21T18:04:54.582Z,3.30
2018-03-21T18:07:28.053Z,2.70
2018-03-21T18:10:01.626Z,14.63
2018-03-21T18:12:37.404Z,19.57
2018-03-21T18:15:12.769Z,11.80
2018-03-21T18:17:46.198Z,3.87
2018-03-21T18:20:19.687Z,2.00
2018-03-21T18:22:55.700Z,2.03
2018-03-21T18:25:29.987Z,3.23
2018-03-21T18:28:03.532Z,3.97
2018-03-21T18:30:38.374Z,3.90
2018-03-21T18:33:11.706Z,3.10
2018-03-21T18:35:44.782Z,2.97
2018-03-21T18:38:24.436Z,4.93
2018-03-21T18:41:02.669Z,7.03
2018-03-21T18:43:36.370Z,6.23
2018-03-21T18:46:10.608Z,6.47
2018-03-21T18:48:43.701Z,6.10
2018-03-21T18:51:17.924Z,7.40
2018-03-21T18:53:52.745Z,7.00
2018-03-21T18:56:26.701Z,5.60
2018-03-21T18:59:00.023Z,4.40
2018-03-21T19:01:33.053Z,4.83
2018-03-21T19:04:08.484Z,6.27
2018-03-21T19:06:42.650Z,18.27
2018-03-21T19:09:16.257Z,38.53
2018-03-21T19:11:49.346Z,15.07
2018-03-21T19:14:23.084Z,8.80
2018-03-21T19:16:57.657Z,6.47
2018-03-21T19:19:33.707Z,4.50
2018-03-21T19:22:07.435Z,4.30
2018-03-21T19:24:41.176Z,4.03
2018-03-21T19:27:15.506Z,3.60
2018-03-21T19:29:49.708Z,3.40
2018-03-21T19:32:26.612Z,3.60
2018-03-21T19:35:02.653Z,3.33
2018-03-21T19:37:36.030Z,3.67
2018-03-21T19:40:09.354Z,6.93
2018-03-21T19:42:43.197Z,6.80
2018-03-21T19:45:16.365Z,4.40
2018-03-21T19:47:50.255Z,4.03
2018-03-21T19:50:25.360Z,3.03
2018-03-21T19:53:00.560Z,3.50
2018-03-21T19:55:39.979Z,3.70
2018-03-21T19:58:13.985Z,4.40
2018-03-21T20:00:47.306Z,5.73
2018-03-21T20:03:20.724Z,11.87
2018-03-21T20:05:55.792Z,17.70
2018-03-21T20:08:30.539Z,7.30
2018-03-21T20:11:05.514Z,5.83
2018-03-21T20:13:41.963Z,3.57
2018-03-21T20:16:21.190Z,2.97
2018-03-21T20:18:55.665Z,2.40
2018-03-21T20:21:29.061Z,2.70
2018-03-21T20:24:03.019Z,2.43
2018-03-21T20:26:37.892Z,2.50
2018-03-21T20:29:12.042Z,2.80
2018-03-21T20:31:45.778Z,2.50
2018-03-21T20:34:18.823Z,2.67
2018-03-21T20:36:52.334Z,2.83
2018-03-21T20:41:54.415Z,2.60
2018-03-21T20:44:28.408Z,3.00
2018-03-21T20:47:03.157Z,2.90
2018-03-21T20:49:36.166Z,2.43
2018-03-21T20:52:09.707Z,2.30
2018-03-21T20:54:43.671Z,2.60
2018-03-21T20:57:17.717Z,2.70
2018-03-21T20:59:51.003Z,2.33
2018-03-21T21:02:24.886Z,2.50
2018-03-21T21:04:59.973Z,3.17
2018-03-21T21:07:34.344Z,3.00
2018-03-21T21:10:07.724Z,2.70
2018-03-21T21:12:41.116Z,2.40
2018-03-21T21:15:15.117Z,2.20
2018-03-21T21:17:49.621Z,2.47
2018-03-21T21:20:22.865Z,2.90
2018-03-21T21:22:56.501Z,2.50
2018-03-21T21:25:29.977Z,2.40
2018-03-21T21:28:03.308Z,2.40
2018-03-21T21:30:38.977Z,2.40
2018-03-21T21:33:12.031Z,2.30
2018-03-21T21:35:45.498Z,2.30
2018-03-21T21:38:18.597Z,2.70
2018-03-21T21:40:51.613Z,2.30
2018-03-21T21:43:24.910Z,2.30
2018-03-21T21:45:58.758Z,2.67
2018-03-21T21:48:32.034Z,2.50
2018-03-21T21:51:06.358Z,2.47
2018-03-21T21:53:39.634Z,2.53
2018-03-21T21:56:12.746Z,2.80
2018-03-21T21:58:46.552Z,2.30
2018-03-21T22:01:22.473Z,2.90
2018-03-21T22:03:55.569Z,2.57
2018-03-21T22:06:28.641Z,2.80
2018-03-21T22:09:02.560Z,2.70
2018-03-21T22:11:36.455Z,2.47
2018-03-21T22:14:09.561Z,2.33
2018-03-21T22:16:42.898Z,3.20
2018-03-21T22:19:15.953Z,2.87
2018-03-21T22:21:49.834Z,3.23
2018-03-21T22:24:24.053Z,2.50
2018-03-21T22:26:58.553Z,2.30
2018-03-21T22:29:32.309Z,2.70
2018-03-21T22:32:07.276Z,2.50
2018-03-21T22:34:40.349Z,2.27
2018-03-21T22:37:17.356Z,2.13
2018-03-21T22:39:50.592Z,2.40
2018-03-21T22:42:25.199Z,2.40
2018-03-21T22:47:25.625Z,2.63
2018-03-21T22:50:00.361Z,2.27
2018-03-21T22:52:33.511Z,2.33
2018-03-21T22:55:07.606Z,2.33
2018-03-21T22:57:40.776Z,2.33
2018-03-21T23:00:13.884Z,2.23
2018-03-21T23:02:47.279Z,2.30
2018-03-21T23:05:20.666Z,2.17
2018-03-21T23:07:54.221Z,2.30
2018-03-21T23:10:28.762Z,2.50
2018-03-21T23:13:01.973Z,2.80
2018-03-21T23:15:34.902Z,2.27
2018-03-21T23:18:08.330Z,2.23
2018-03-21T23:20:41.343Z,2.27
2018-03-21T23:23:14.334Z,2.30
2018-03-21T23:25:47.592Z,2.10
2018-03-21T23:28:21.358Z,2.20
2018-03-21T23:30:54.589Z,2.20
2018-03-21T23:33:28.655Z,2.03
2018-03-21T23:36:01.767Z,2.30
2018-03-21T23:38:34.776Z,2.27
2018-03-21T23:41:07.916Z,2.53
2018-03-21T23:43:40.919Z,2.47
2018-03-21T23:46:13.962Z,2.40
2018-03-21T23:48:46.931Z,2.40
2018-03-21T23:51:20.960Z,2.50
2018-03-21T23:53:54.249Z,2.30
2018-03-21T23:56:27.225Z,2.20
2018-03-21T23:59:00.279Z,2.03
